Redhill, United Kingdom
Current Conditions -  °F | °C
As of 11:50 AM on Monday 22 Dec 2014 (Local Time) from EGKK Reporting Station
Broken Clouds Broken Clouds  
Wind Chill: 54°   Ceiling: 2100
Heat Index: 54°   Visibility: 6mi
Dew Point: 48°   Wind: 17mph
Humidity: 82%   Direction: 240°WSW
Pressure: 30.09"   Gusts: NA
Location:  51.24°N, 0.17°W
Report Text: EGKK 221150Z 24015KT 9999 SCT017 BKN021 12/09 Q1019
Loading
Personal Weather Stations






























Interactive Weather Map New forecast layout! Learn more

10-Day Weather Forecast

Advertisements
Track Severe Weather on mobile